Aeroporto :
LOGIN :

Iscrizione | Disclaimer

   EN    FR    IT 

 










Sommario :    VFR   VFR Marginale   IFR   IFR Intensivo   IFR Molto Intensivo
Visibilità : 
Base nubi : 
>= 8 km
>= 3000ft
5 / 8 km
1000 / 3000 ft
1500m / 5 km
500 / 1000 ft
800 / 1500m
200 / 500 ft
< 800m
< 200 ft
Simboli :   Temporali  Nebbia  Neve Forte  Precipitazioni Forti  Vento > 20 kt
SIGMETs :   Varie  Temporali  Ghiacco  Turbolenza  Onda orograficha  Ceneri Vulcaniche






- Altitudine del aeroporto : 7 ft
- Codice IATA : ESH


EGKA - Shoreham

ULTIMO METAR :
  • 071920Z 22013KT 9999 BKN023 10/09 Q1013

METARs OBSOLETI :
  • 071850Z 22011KT 9999 BKN025 10/09 Q1013
  • 071820Z 22011KT 9999 BKN026 10/09 Q1013
  • 071750Z 22011KT 9999 BKN028 10/08 Q1014
  • 071720Z 22008KT 9999 FEW021 BKN026 10/08 Q1014
  • 071650Z 22009KT 9999 BKN026 10/08 Q1014

TAF TAF EGKA
Valido dal 07 a 18 ore il 07 a 20 ore UTC


071659Z 0718/0720 22012KT 9999 SCT035
ATIS : +44 1273 467 372



MetMap, La meteo Aeronautica in un colpo d'occhio ! - Copyright ORBIFLY Dicembre 2007 - Disclaimer

ORBIFLY MET'MAP TEAM :

Programmazione e sviluppo : Alexandra Zaïnal
Concezione : Baudouin d'Aumeries
Aiuto per la programmazione : Marc-Olivier Méhu
Supporto tecnico e logistico : Manuel Goepfert
Aiuto per la traduzione : Arnaldo La Scala

Contatto : metmap@orbifly.com




FONTI E CREDITI :

   NOAA